• Join FlightAware (Why Join?)
  • Login
  • US Flag GB Flag 
04:14 EST


 

Airport Tracker/Info


-or-


 

Live Flight TrackerFlight Track Log ✈ N36VE ✈ 11-Jan-2013 ✈ KLBF - KJYR

Flight Track Log - Related Links

Times and Time Zones

All times are in EST time to prevent confusion due to time zone crossing. See the N36VE flight status page for this flight to view local times or setup timezone preferences in your user account.

Time Position Orientation Groundspeed Altitude Reporting Facility
EST Latitude Longitude Course Direction KTS MPH feet Rate Location/Type
16:47 41.1364 -100.6972 95° East 111 128 3,400  Level Denver Center
16:48 41.1583 -100.6847 23° Northeast 114 131 4,200 780 Climbing Denver Center
16:49 41.1758 -100.6447 60° Northeast 127 146 5,000 780 Climbing Denver Center
16:50 41.1858 -100.5975 74° East 122 140 5,900 660 Climbing Denver Center
16:51 41.0981 -100.3232 95° East  Level FlightAware Approximate
16:51 41.1908 -100.5581 80° East 117 135 6,400  Level Denver Center
16:52 41.0930 -100.2512 95° East  Level FlightAware Approximate
16:52 41.1964 -100.5036 82° East 126 145 6,900  Level Denver Center
16:53 41.2042 -100.4703 73° East 113 130 3,800 -3,000 Descending Denver Center
16:55 41.1944 -100.3685 108° East  Level Estimated
17:02 41.1449 -99.8661 95° East  Level Estimated
17:03 41.1329 -99.7955 103° East  Level FlightAware Approximate
17:04 41.1208 -99.7250 103° East  Level FlightAware Approximate
17:05 41.1087 -99.6544 103° East  Level FlightAware Approximate
17:06 41.0966 -99.5839 103° East  Level FlightAware Approximate
17:07 41.0844 -99.5135 103° East  Level FlightAware Approximate
17:08 41.0721 -99.4430 103° East  Level FlightAware Approximate
17:09 41.0598 -99.3726 103° East  Level FlightAware Approximate
17:10 41.0475 -99.3022 103° East  Level FlightAware Approximate
17:11 41.0351 -99.2319 103° East  Level FlightAware Approximate
17:12 41.0227 -99.1615 103° East  Level FlightAware Approximate
17:13 41.0103 -99.0912 103° East  Level FlightAware Approximate
17:14 41.0051 -99.0193 93° East  Level Estimated
17:15 41.0012 -98.9473 94° East  Level FlightAware Approximate
17:16 40.9972 -98.8753 94° East  Level FlightAware Approximate
17:17 40.9931 -98.8033 94° East  Level FlightAware Approximate
17:18 40.9890 -98.7313 94° East  Level FlightAware Approximate
17:19 40.9849 -98.6594 94° East  Level FlightAware Approximate
17:20 40.9790 -98.5876 96° East  Level Estimated
17:21 40.9732 -98.5158 96° East  Level FlightAware Approximate
17:22 40.9674 -98.4441 96° East  Level FlightAware Approximate
17:23 40.9615 -98.3723 96° East  Level FlightAware Approximate
17:24 40.9556 -98.3006 96° East  Level FlightAware Approximate
17:25 40.9495 -98.2289 97° East  Level Estimated
17:26 40.9424 -98.1574 97° East  Level FlightAware Approximate
17:27 40.9353 -98.0859 98° East  Level FlightAware Approximate
17:28 40.9294 -98.0142 97° East  Level Estimated
17:29 40.9214 -97.9428 98° East  Level FlightAware Approximate
17:30 40.9159 -97.8711 102° East  Level Estimated
17:31 40.9103 -97.7993 97° East  Level Estimated
17:32 40.8999 -97.7286 101° East  Level FlightAware Approximate
17:33 40.8894 -97.6578 101° East  Level FlightAware Approximate
17:34 40.8833 -97.6167 97° East  Level FlightAware Approximate
17:35 40.8964 -97.6241 97° East  Level Estimated
17:36 40.8964 -97.6241 97° East  Level Estimated
17:37 40.8964 -97.6241 97° East  Level Estimated
17:38 40.8964 -97.6241 97° East  Level Estimated
17:39 40.8964 -97.6241 97° East  Level Estimated
17:40 40.8964 -97.6241 97° East  Level Estimated
17:41 40.8964 -97.6241 97° East  Level Estimated
17:42 40.8964 -97.6241 97° East  Level Estimated
17:43 40.8964 -97.6241 97° East  Level Estimated
17:44 40.8964 -97.6241 97° East  Level Estimated